Time;durP1;ratioP1;P1;durP2;ratioP2;P2;SDS_P1;SDS_P2;PMS_P1;PMS_P2;Temp;Humidity;BMP_temperature;BMP_pressure;BME280_temperature;BME280_humidity;BME280_pressure;Samples;Min_cycle;Max_cycle;Signal;HPM_P1;HPM_P2
2021/01/21 00:00:19;;;;;;;1.08;0.57;;;12.60;66.20;;;;;;5056491;28;20055;-78
2021/01/21 00:02:44;;;;;;;1.05;0.50;;;12.60;66.00;;;;;;5053559;28;20460;-78
2021/01/21 00:05:10;;;;;;;0.63;0.63;;;12.60;66.00;;;;;;5056166;28;20028;-78
2021/01/21 00:07:36;;;;;;;0.80;0.60;;;12.60;66.00;;;;;;5054046;28;20045;-77
2021/01/21 00:10:02;;;;;;;0.50;0.40;;;12.60;65.90;;;;;;5054201;28;20033;-79
2021/01/21 00:12:28;;;;;;;0.90;0.50;;;12.60;65.80;;;;;;5038319;28;20074;-78
2021/01/21 00:14:53;;;;;;;0.98;0.68;;;12.60;65.90;;;;;;5052613;28;20505;-76
2021/01/21 00:17:19;;;;;;;1.02;0.50;;;12.70;65.90;;;;;;5055513;28;20041;-77
2021/01/21 00:19:44;;;;;;;1.30;0.80;;;12.70;65.90;;;;;;5033566;28;20033;-78
2021/01/21 00:22:10;;;;;;;0.93;0.68;;;12.60;65.70;;;;;;5055675;28;20119;-77
2021/01/21 00:24:35;;;;;;;0.73;0.60;;;12.60;65.70;;;;;;5054725;28;20032;-78
2021/01/21 00:27:01;;;;;;;0.93;0.60;;;12.60;65.70;;;;;;5057292;28;20082;-78
2021/01/21 00:29:26;;;;;;;0.55;0.45;;;12.60;65.70;;;;;;5054153;28;20077;-75
2021/01/21 00:31:52;;;;;;;0.55;0.50;;;12.70;65.70;;;;;;5049693;28;20037;-76
2021/01/21 00:34:18;;;;;;;0.43;0.32;;;12.60;65.60;;;;;;5052535;28;20740;-78
2021/01/21 00:36:43;;;;;;;0.57;0.47;;;12.60;65.60;;;;;;5052126;28;20037;-78
2021/01/21 00:39:09;;;;;;;1.08;0.50;;;12.60;65.70;;;;;;5050024;28;20029;-78
2021/01/21 00:41:34;;;;;;;1.60;0.60;;;12.70;65.80;;;;;;5056529;28;20111;-78
2021/01/21 00:44:00;;;;;;;0.88;0.60;;;12.60;66.40;;;;;;5049471;28;20047;-79
2021/01/21 00:46:25;;;;;;;1.52;0.60;;;12.60;65.80;;;;;;5036241;28;20033;-78
2021/01/21 00:48:51;;;;;;;1.05;0.60;;;12.60;65.90;;;;;;5048959;28;20029;-78
2021/01/21 00:51:17;;;;;;;1.42;0.60;;;12.60;65.80;;;;;;5052482;28;20033;-77
2021/01/21 00:53:42;;;;;;;1.02;0.50;;;12.70;65.90;;;;;;5055067;28;20033;-82
2021/01/21 00:56:08;;;;;;;0.95;0.52;;;12.70;65.90;;;;;;5055414;28;20695;-78
2021/01/21 00:58:33;;;;;;;1.10;0.60;;;12.80;65.90;;;;;;5054581;28;20040;-76
2021/01/21 01:00:59;;;;;;;1.50;0.68;;;12.70;65.70;;;;;;5049686;28;20029;-79
2021/01/21 01:03:24;;;;;;;1.50;0.80;;;12.70;65.70;;;;;;5053856;28;20107;-78
2021/01/21 01:05:50;;;;;;;1.00;0.50;;;12.80;65.70;;;;;;5051673;28;20025;-78
2021/01/21 01:08:15;;;;;;;0.50;0.40;;;12.80;65.60;;;;;;5046255;28;20494;-80
2021/01/21 01:10:41;;;;;;;0.63;0.40;;;12.80;65.60;;;;;;5052129;28;20033;-79
2021/01/21 01:13:06;;;;;;;0.85;0.40;;;12.90;65.60;;;;;;5047706;28;20029;-79
2021/01/21 01:15:33;;;;;;;1.95;0.70;;;12.90;65.60;;;;;;5045876;28;20041;-79
2021/01/21 01:18:00;;;;;;;1.15;0.60;;;12.80;65.40;;;;;;5045564;28;20048;-80
2021/01/21 01:20:25;;;;;;;0.80;0.60;;;12.80;65.30;;;;;;5050980;28;20040;-78
2021/01/21 01:22:52;;;;;;;0.63;0.50;;;12.90;65.40;;;;;;5041056;28;20029;-78
2021/01/21 01:25:18;;;;;;;0.93;0.60;;;12.80;65.30;;;;;;5050960;28;20094;-78
2021/01/21 01:27:44;;;;;;;0.93;0.80;;;12.80;65.20;;;;;;5050620;28;20033;-78
2021/01/21 01:30:11;;;;;;;0.82;0.77;;;12.80;65.10;;;;;;5042970;28;20044;-77
2021/01/21 01:32:37;;;;;;;2.28;0.50;;;12.90;65.10;;;;;;5039047;28;20032;-79
2021/01/21 01:35:03;;;;;;;1.45;0.70;;;12.80;65.10;;;;;;5054155;28;20058;-76
2021/01/21 01:37:28;;;;;;;0.70;0.43;;;12.80;64.90;;;;;;5048467;28;20044;-79
2021/01/21 01:39:54;;;;;;;0.60;0.55;;;12.80;64.90;;;;;;5051982;28;20060;-78
2021/01/21 01:42:19;;;;;;;0.88;0.60;;;12.80;64.90;;;;;;5047275;28;20601;-79
2021/01/21 01:44:45;;;;;;;1.38;0.60;;;12.70;64.80;;;;;;5051064;28;20033;-78
2021/01/21 01:47:11;;;;;;;0.85;0.52;;;12.70;64.80;;;;;;5051961;28;20115;-78
2021/01/21 01:49:37;;;;;;;1.27;0.63;;;12.70;64.70;;;;;;5047366;28;20383;-78
2021/01/21 01:52:03;;;;;;;1.17;0.65;;;12.60;64.80;;;;;;5050672;28;20033;-78
2021/01/21 01:54:29;;;;;;;0.85;0.40;;;12.60;64.80;;;;;;5049717;28;20033;-79
2021/01/21 01:56:56;;;;;;;0.93;0.70;;;12.60;64.90;;;;;;5053208;28;20025;-77
2021/01/21 01:59:22;;;;;;;0.40;0.40;;;12.50;64.80;;;;;;5048960;28;20547;-78
2021/01/21 02:01:49;;;;;;;0.47;0.40;;;12.60;64.90;;;;;;5043170;28;20164;-78
2021/01/21 02:04:15;;;;;;;0.82;0.47;;;12.50;64.90;;;;;;5053241;28;20052;-81
2021/01/21 02:06:40;;;;;;;0.50;0.45;;;12.40;64.90;;;;;;5043551;28;20407;-77
2021/01/21 02:09:06;;;;;;;1.15;0.50;;;12.40;64.80;;;;;;5044005;28;20061;-78
2021/01/21 02:11:56;;;;;;;0.52;0.40;;;12.40;64.90;;;;;;5043611;28;20037;-78
2021/01/21 02:14:37;;;;;;;1.10;0.80;;;12.30;64.00;;;;;;5043451;28;20033;-78
2021/01/21 02:17:05;;;;;;;1.20;0.50;;;12.30;64.50;;;;;;5052936;28;20025;-78
2021/01/21 02:20:00;;;;;;;0.95;0.50;;;12.30;64.70;;;;;;5048415;28;20036;-78
2021/01/21 02:23:02;;;;;;;1.02;0.50;;;12.30;64.30;;;;;;5045962;28;20125;-78
2021/01/21 02:25:35;;;;;;;0.75;0.75;;;12.20;64.10;;;;;;5052900;28;20025;-78
2021/01/21 02:28:07;;;;;;;0.70;0.50;;;12.10;64.50;;;;;;5030704;28;20029;-78
2021/01/21 02:30:50;;;;;;;0.45;0.45;;;12.10;64.40;;;;;;5047690;28;20128;-78
2021/01/21 02:33:33;;;;;;;0.57;0.40;;;12.10;64.10;;;;;;5045017;28;20067;-78
2021/01/21 02:36:03;;;;;;;1.27;0.90;;;12.10;64.60;;;;;;5048567;28;20033;-78
2021/01/21 02:38:31;;;;;;;0.90;0.30;;;12.00;64.60;;;;;;5028904;28;20087;-78
2021/01/21 02:40:58;;;;;;;0.55;0.32;;;12.00;64.70;;;;;;5049764;28;20116;-78
2021/01/21 02:43:24;;;;;;;2.33;0.40;;;11.90;64.80;;;;;;5052020;28;20049;-78
2021/01/21 02:45:49;;;;;;;0.70;0.38;;;11.80;64.80;;;;;;5044917;28;20514;-80
2021/01/21 02:48:15;;;;;;;1.38;0.52;;;11.80;64.80;;;;;;5046765;28;20033;-78
2021/01/21 02:50:41;;;;;;;0.45;0.40;;;11.80;64.80;;;;;;5049760;28;20060;-78
2021/01/21 02:53:07;;;;;;;0.73;0.50;;;11.70;64.70;;;;;;5051191;28;20032;-78
2021/01/21 02:55:56;;;;;;;1.35;0.60;;;11.70;64.80;;;;;;5052333;28;20408;-78
2021/01/21 02:58:34;;;;;;;1.25;0.52;;;11.70;64.40;;;;;;5048286;28;20498;-78
2021/01/21 03:01:01;;;;;;;0.80;0.40;;;11.60;64.30;;;;;;5045283;28;20044;-79
2021/01/21 03:03:29;;;;;;;0.95;0.65;;;11.60;64.70;;;;;;5049639;28;20516;-78
2021/01/21 03:05:57;;;;;;;0.68;0.50;;;11.60;64.80;;;;;;5053360;28;20063;-80
2021/01/21 03:08:23;;;;;;;2.03;0.50;;;11.50;64.80;;;;;;5047502;28;20041;-78
2021/01/21 03:10:49;;;;;;;0.70;0.50;;;11.50;64.80;;;;;;5053002;28;20048;-80
2021/01/21 03:13:15;;;;;;;0.68;0.50;;;11.50;64.90;;;;;;5048663;28;20509;-78
2021/01/21 03:15:40;;;;;;;1.08;0.65;;;11.50;65.00;;;;;;5049982;28;20029;-78
2021/01/21 03:18:06;;;;;;;0.68;0.50;;;11.40;65.50;;;;;;5047540;28;20497;-78
2021/01/21 03:20:31;;;;;;;0.95;0.68;;;11.40;65.00;;;;;;5054102;28;20041;-78
2021/01/21 03:22:57;;;;;;;0.80;0.60;;;11.40;65.00;;;;;;5030425;28;20453;-78
2021/01/21 03:25:22;;;;;;;1.00;0.50;;;11.40;65.10;;;;;;5052167;28;20032;-77
2021/01/21 03:27:48;;;;;;;0.63;0.52;;;11.30;65.10;;;;;;5046396;28;20486;-78
2021/01/21 03:30:14;;;;;;;1.02;0.68;;;11.40;65.10;;;;;;5049147;28;20033;-77
2021/01/21 03:32:39;;;;;;;1.05;0.60;;;11.30;65.10;;;;;;5044726;28;20037;-78
2021/01/21 03:35:06;;;;;;;1.20;0.52;;;11.40;65.20;;;;;;5049257;28;20075;-78
2021/01/21 03:37:31;;;;;;;1.42;0.73;;;11.40;65.10;;;;;;5042971;28;20037;-78
2021/01/21 03:39:57;;;;;;;0.60;0.55;;;11.40;65.40;;;;;;5056800;28;20036;-79
2021/01/21 03:42:22;;;;;;;0.75;0.50;;;11.30;65.10;;;;;;5049864;28;20036;-77
2021/01/21 03:44:48;;;;;;;0.80;0.50;;;11.30;65.10;;;;;;5046423;28;20394;-78
2021/01/21 03:47:13;;;;;;;0.65;0.50;;;11.30;65.10;;;;;;5047805;28;20067;-79
2021/01/21 03:49:39;;;;;;;1.00;0.43;;;11.30;65.10;;;;;;5048308;28;20033;-76
2021/01/21 03:52:04;;;;;;;0.52;0.40;;;11.40;65.20;;;;;;5047297;28;20048;-78
2021/01/21 03:54:30;;;;;;;0.55;0.40;;;11.30;65.20;;;;;;5034350;28;20508;-79
2021/01/21 03:56:55;;;;;;;0.82;0.52;;;11.30;65.20;;;;;;5049061;28;20026;-76
2021/01/21 03:59:21;;;;;;;0.98;0.47;;;11.30;65.20;;;;;;5050994;28;20032;-78
2021/01/21 04:01:47;;;;;;;1.15;0.43;;;11.30;65.30;;;;;;5046922;28;20055;-78
2021/01/21 04:04:13;;;;;;;0.50;0.40;;;11.40;65.30;;;;;;5052785;28;20047;-78
2021/01/21 04:06:38;;;;;;;0.35;0.30;;;11.40;65.40;;;;;;5044841;28;20491;-78
2021/01/21 04:09:04;;;;;;;0.50;0.40;;;11.40;65.30;;;;;;5054493;28;20029;-77
2021/01/21 04:11:30;;;;;;;1.13;0.50;;;11.40;65.30;;;;;;5049798;28;20096;-76
2021/01/21 04:13:55;;;;;;;0.57;0.50;;;11.50;65.40;;;;;;5056902;28;20109;-77
2021/01/21 04:16:21;;;;;;;0.55;0.43;;;11.40;65.40;;;;;;5052113;28;20098;-78
2021/01/21 04:18:46;;;;;;;1.33;0.57;;;11.50;65.50;;;;;;5051119;28;20075;-78
2021/01/21 04:21:12;;;;;;;2.30;0.63;;;11.50;65.50;;;;;;5050150;28;20036;-78
2021/01/21 04:23:37;;;;;;;0.55;0.50;;;11.50;65.50;;;;;;5048661;28;20033;-78
2021/01/21 04:28:40;;;;;;;2.50;0.50;;;11.60;65.30;;;;;;5019381;28;20042;-74
2021/01/21 04:31:06;;;;;;;1.52;0.52;;;11.70;65.60;;;;;;5034370;28;20021;-73
2021/01/21 04:33:31;;;;;;;0.45;0.38;;;11.70;65.60;;;;;;5030792;28;20375;-74
2021/01/21 04:35:57;;;;;;;1.50;0.60;;;11.80;65.60;;;;;;5032422;28;20045;-73
2021/01/21 04:38:22;;;;;;;0.65;0.43;;;11.80;65.60;;;;;;5033996;28;20103;-74
2021/01/21 04:40:48;;;;;;;0.52;0.45;;;11.90;65.70;;;;;;5041657;28;20029;-73
2021/01/21 04:43:14;;;;;;;0.40;0.32;;;12.00;65.80;;;;;;5029705;28;20113;-74
2021/01/21 04:45:39;;;;;;;0.30;0.30;;;12.00;65.80;;;;;;5029178;28;20463;-74
2021/01/21 04:48:07;;;;;;;2.38;0.60;;;12.10;65.80;;;;;;5037091;28;20033;-73
2021/01/21 04:50:34;;;;;;;0.70;0.40;;;12.20;65.70;;;;;;5038322;28;20426;-73
2021/01/21 04:53:00;;;;;;;1.23;0.60;;;12.20;66.10;;;;;;5033094;28;20086;-73
2021/01/21 04:55:36;;;;;;;1.02;0.50;;;12.30;65.50;;;;;;5035990;28;20045;-73
2021/01/21 04:58:24;;;;;;;0.43;0.40;;;12.30;64.70;;;;;;5036301;28;20032;-73
2021/01/21 05:00:50;;;;;;;1.70;0.43;;;12.50;64.50;;;;;;5033402;28;20515;-73
2021/01/21 05:03:17;;;;;;;1.13;0.43;;;12.50;65.30;;;;;;5024623;28;20061;-73
2021/01/21 05:05:43;;;;;;;0.57;0.45;;;12.60;65.20;;;;;;5035408;28;20087;-75
2021/01/21 05:08:08;;;;;;;1.00;0.40;;;12.60;65.10;;;;;;5033636;28;20116;-73
2021/01/21 05:10:35;;;;;;;0.28;0.28;;;12.70;65.00;;;;;;5039274;28;20029;-74
2021/01/21 05:13:00;;;;;;;0.57;0.30;;;12.70;64.90;;;;;;5037661;28;20036;-73
2021/01/21 05:15:26;;;;;;;1.08;0.47;;;12.80;64.80;;;;;;5033310;28;21579;-74
2021/01/21 05:17:52;;;;;;;0.65;0.30;;;12.80;64.80;;;;;;5028463;28;20034;-76
2021/01/21 05:20:23;;;;;;;0.38;0.32;;;12.80;64.60;;;;;;5032684;28;20057;-76
2021/01/21 05:22:54;;;;;;;0.30;0.20;;;12.90;64.50;;;;;;5033611;28;20036;-76
2021/01/21 05:25:20;;;;;;;1.05;0.40;;;12.90;64.50;;;;;;5034432;28;20036;-76
2021/01/21 05:27:46;;;;;;;0.40;0.40;;;13.00;64.50;;;;;;5034590;28;20041;-76
2021/01/21 05:30:14;;;;;;;0.60;0.50;;;13.00;64.30;;;;;;5029495;28;20398;-76
2021/01/21 05:32:40;;;;;;;0.95;0.60;;;13.00;64.10;;;;;;5027939;28;20037;-76
2021/01/21 05:35:06;;;;;;;0.50;0.40;;;13.00;64.60;;;;;;5032857;28;20049;-76
2021/01/21 05:37:38;;;;;;;1.02;0.60;;;13.10;64.20;;;;;;5013578;28;20041;-73
2021/01/21 05:40:06;;;;;;;0.40;0.40;;;13.00;63.80;;;;;;5032206;28;20049;-74
2021/01/21 05:42:35;;;;;;;0.28;0.28;;;13.10;64.10;;;;;;5036371;28;20108;-73
2021/01/21 05:45:02;;;;;;;0.60;0.30;;;13.20;63.90;;;;;;5029148;28;20637;-73
2021/01/21 05:47:28;;;;;;;1.27;0.57;;;13.10;64.10;;;;;;5033477;28;20044;-73
2021/01/21 05:49:54;;;;;;;1.13;0.45;;;13.10;64.00;;;;;;5028382;28;20498;-73
2021/01/21 05:52:19;;;;;;;1.00;0.38;;;13.20;64.10;;;;;;5034456;28;20065;-73
2021/01/21 05:54:46;;;;;;;0.75;0.60;;;13.20;64.00;;;;;;5037189;28;20045;-74
2021/01/21 05:57:12;;;;;;;0.82;0.30;;;13.30;63.90;;;;;;5037119;28;20493;-74
2021/01/21 05:59:38;;;;;;;0.68;0.50;;;13.30;63.90;;;;;;5035947;28;20117;-73
2021/01/21 06:02:04;;;;;;;1.50;0.68;;;13.40;63.80;;;;;;5032075;28;20034;-74
2021/01/21 06:04:33;;;;;;;0.65;0.40;;;13.30;63.70;;;;;;5033816;28;20029;-74
2021/01/21 06:07:00;;;;;;;0.50;0.38;;;13.30;63.80;;;;;;5027430;28;20030;-73
2021/01/21 06:09:27;;;;;;;1.38;0.43;;;13.40;63.80;;;;;;5034331;28;20053;-74
2021/01/21 06:11:59;;;;;;;0.30;0.30;;;13.40;63.80;;;;;;5038282;28;20494;-73
2021/01/21 06:14:25;;;;;;;1.50;0.40;;;13.40;63.60;;;;;;5029575;28;20455;-73
2021/01/21 06:16:52;;;;;;;0.25;0.25;;;13.40;63.90;;;;;;5023528;28;20056;-74
2021/01/21 06:19:18;;;;;;;1.75;0.82;;;13.50;63.90;;;;;;5025295;28;20034;-74
2021/01/21 06:21:48;;;;;;;0.32;0.30;;;13.40;63.80;;;;;;5030339;28;20410;-74
2021/01/21 06:24:15;;;;;;;0.70;0.30;;;13.50;63.70;;;;;;5028146;28;20084;-74
2021/01/21 06:26:44;;;;;;;1.25;0.20;;;13.50;63.80;;;;;;5032690;28;20044;-73
2021/01/21 06:29:14;;;;;;;0.73;0.40;;;13.60;63.90;;;;;;5020207;28;20025;-74
2021/01/21 06:31:41;;;;;;;1.40;0.55;;;13.60;63.90;;;;;;5025147;28;20133;-73
2021/01/21 06:34:19;;;;;;;2.05;0.40;;;13.60;63.80;;;;;;5025607;28;20060;-74
2021/01/21 06:36:51;;;;;;;1.25;0.60;;;13.70;63.80;;;;;;5028195;28;20037;-73
2021/01/21 06:39:25;;;;;;;0.45;0.35;;;13.80;63.70;;;;;;5027810;28;20438;-74
2021/01/21 06:41:56;;;;;;;0.28;0.20;;;13.90;63.90;;;;;;5032819;28;20021;-73
2021/01/21 06:44:22;;;;;;;0.40;0.20;;;13.80;63.60;;;;;;5030421;28;20514;-73
2021/01/21 06:46:49;;;;;;;2.10;0.40;;;13.80;63.20;;;;;;5037194;28;20033;-73
2021/01/21 06:49:16;;;;;;;0.73;0.20;;;13.80;62.80;;;;;;5035807;28;20613;-74
2021/01/21 06:51:45;;;;;;;0.30;0.13;;;13.80;62.40;;;;;;5035276;28;20037;-73
2021/01/21 06:54:11;;;;;;;0.20;0.20;;;13.60;61.90;;;;;;5035691;28;20056;-74
2021/01/21 06:56:37;;;;;;;1.73;0.15;;;13.40;61.70;;;;;;5035198;28;20133;-73
2021/01/21 06:59:02;;;;;;;0.40;0.20;;;13.20;61.60;;;;;;5037144;28;20549;-73
2021/01/21 07:01:31;;;;;;;0.30;0.10;;;13.10;61.70;;;;;;5024541;28;20034;-74
2021/01/21 07:03:58;;;;;;;0.20;0.20;;;12.80;61.70;;;;;;5023365;28;20028;-73
2021/01/21 07:06:23;;;;;;;0.10;0.10;;;12.70;61.70;;;;;;5027909;28;20109;-74
2021/01/21 07:09:07;;;;;;;0.40;0.15;;;12.50;61.70;;;;;;5029191;28;20120;-74
2021/01/21 07:11:35;;;;;;;0.77;0.30;;;12.40;61.60;;;;;;5031536;28;20119;-74
2021/01/21 07:14:04;;;;;;;0.52;0.20;;;12.40;61.90;;;;;;5034456;28;20116;-73
2021/01/21 07:16:33;;;;;;;0.28;0.10;;;12.00;61.90;;;;;;5028372;28;20419;-74
2021/01/21 07:19:00;;;;;;;0.20;0.10;;;12.00;62.60;;;;;;5032546;28;20082;-73
2021/01/21 07:21:30;;;;;;;0.40;0.17;;;11.80;62.20;;;;;;5037568;28;20035;-74
2021/01/21 07:23:57;;;;;;;0.40;0.20;;;11.80;62.40;;;;;;5031927;28;20065;-73
2021/01/21 07:26:42;;;;;;;0.63;0.20;;;11.60;62.60;;;;;;5035032;28;20078;-75
2021/01/21 07:29:11;;;;;;;1.08;0.47;;;11.60;62.30;;;;;;5029593;28;20372;-74
2021/01/21 07:31:52;;;;;;;0.77;0.20;;;11.50;62.90;;;;;;5024367;28;20033;-74
2021/01/21 07:34:24;;;;;;;;;;;11.40;62.70;;;;;;5029762;28;20057;-74
2021/01/21 07:37:08;;;;;;;0.47;0.35;;;11.30;62.50;;;;;;5029861;28;19913;-74
2021/01/21 07:39:56;;;;;;;0.88;0.40;;;11.20;62.60;;;;;;5035806;28;20045;-75
2021/01/21 07:42:48;;;;;;;0.38;0.35;;;11.10;62.80;;;;;;5035104;28;20033;-74
2021/01/21 07:45:19;;;;;;;0.55;0.20;;;11.00;63.10;;;;;;5027797;28;20483;-75
2021/01/21 07:47:46;;;;;;;0.20;0.13;;;11.00;63.20;;;;;;5025903;28;20037;-74
2021/01/21 07:50:25;;;;;;;0.93;0.28;;;11.00;63.50;;;;;;5017325;28;20139;-74
2021/01/21 07:52:58;;;;;;;0.55;0.20;;;10.90;63.50;;;;;;5023720;28;20029;-74
2021/01/21 07:55:38;;;;;;;0.35;0.20;;;10.90;63.70;;;;;;5024657;28;20392;-75
2021/01/21 07:58:19;;;;;;;0.22;0.17;;;10.80;63.60;;;;;;5027463;28;20394;-77
2021/01/21 08:00:47;;;;;;;0.77;0.20;;;10.70;63.70;;;;;;5028720;28;20030;-75
2021/01/21 08:03:13;;;;;;;0.30;0.10;;;10.70;64.00;;;;;;5027353;28;20566;-75
2021/01/21 08:05:38;;;;;;;0.32;0.10;;;10.80;64.10;;;;;;5032012;28;20038;-75
2021/01/21 08:08:04;;;;;;;0.50;0.28;;;10.70;64.20;;;;;;5027493;28;20545;-75
2021/01/21 08:10:32;;;;;;;0.95;0.20;;;10.70;64.30;;;;;;5030017;28;20025;-75
2021/01/21 08:12:59;;;;;;;1.08;0.40;;;10.70;64.30;;;;;;5027574;28;20033;-76
2021/01/21 08:15:26;;;;;;;0.35;0.20;;;10.60;64.30;;;;;;5031273;28;20033;-76
2021/01/21 08:17:53;;;;;;;0.40;0.22;;;10.60;64.40;;;;;;5026643;28;20490;-75
2021/01/21 08:20:30;;;;;;;2.40;0.38;;;10.60;64.40;;;;;;5031930;28;20056;-76
2021/01/21 08:23:08;;;;;;;0.50;0.10;;;10.70;64.50;;;;;;5026789;28;20034;-75
2021/01/21 08:25:42;;;;;;;0.47;0.20;;;10.70;64.80;;;;;;5027332;28;20041;-76
2021/01/21 08:28:08;;;;;;;0.38;0.20;;;10.70;64.70;;;;;;5023997;28;20038;-77
2021/01/21 08:30:34;;;;;;;0.95;0.40;;;10.90;64.90;;;;;;5032159;28;20148;-75
2021/01/21 08:33:25;;;;;;;1.75;0.32;;;10.80;64.70;;;;;;5028378;28;20523;-76
2021/01/21 08:35:53;;;;;;;0.60;0.28;;;10.80;64.20;;;;;;5029477;28;20041;-77
2021/01/21 08:38:23;;;;;;;1.30;0.38;;;10.80;64.50;;;;;;5025676;28;20100;-77
2021/01/21 08:40:50;;;;;;;0.30;0.22;;;10.90;64.50;;;;;;5022709;28;20072;-76
2021/01/21 08:43:18;;;;;;;0.75;0.40;;;10.90;64.60;;;;;;5025765;28;20030;-76
2021/01/21 08:45:43;;;;;;;0.17;0.10;;;10.90;64.60;;;;;;5026688;28;20499;-77
2021/01/21 08:48:10;;;;;;;1.85;0.43;;;10.90;64.60;;;;;;5031029;28;20048;-76
2021/01/21 08:50:40;;;;;;;1.27;0.57;;;10.90;64.60;;;;;;5027262;28;20039;-77
2021/01/21 08:53:10;;;;;;;0.88;0.50;;;10.90;64.50;;;;;;5026775;28;20037;-77
2021/01/21 08:55:53;;;;;;;1.88;0.40;;;11.00;64.50;;;;;;5025794;28;20533;-77
2021/01/21 08:58:30;;;;;;;1.13;0.30;;;11.00;64.30;;;;;;5029371;28;20064;-77
2021/01/21 09:01:12;;;;;;;0.47;0.25;;;11.00;64.40;;;;;;5024737;28;20710;-76
2021/01/21 09:03:53;;;;;;;1.13;0.55;;;11.00;64.30;;;;;;5028496;28;20037;-78
2021/01/21 09:06:20;;;;;;;0.35;0.25;;;11.00;64.30;;;;;;5028911;28;20052;-77
2021/01/21 09:08:51;;;;;;;1.55;0.40;;;11.00;64.30;;;;;;5021608;28;20041;-76
2021/01/21 09:11:33;;;;;;;;;;;11.00;64.30;;;;;;5024846;28;20030;-75
2021/01/21 09:14:02;;;;;;;0.82;0.40;;;11.00;63.90;;;;;;5027333;28;19909;-77
2021/01/21 09:16:40;;;;;;;0.75;0.28;;;11.00;64.10;;;;;;5024197;28;20107;-75
2021/01/21 09:19:06;;;;;;;0.20;0.17;;;11.00;63.80;;;;;;5024492;28;20046;-76
2021/01/21 09:21:32;;;;;;;0.65;0.25;;;11.00;64.70;;;;;;5033935;28;20111;-76
2021/01/21 09:24:10;;;;;;;3.20;0.70;;;11.00;64.20;;;;;;5023006;28;20037;-75
2021/01/21 09:26:36;;;;;;;0.22;0.22;;;11.00;63.70;;;;;;5026059;28;20073;-76
2021/01/21 09:29:02;;;;;;;1.45;0.30;;;11.00;64.20;;;;;;5027549;28;20034;-75
2021/01/21 09:31:30;;;;;;;0.20;0.20;;;11.00;64.30;;;;;;5032344;28;20033;-75
2021/01/21 09:33:56;;;;;;;1.05;0.22;;;11.00;64.30;;;;;;5027910;28;20029;-75
2021/01/21 09:36:26;;;;;;;0.28;0.20;;;11.10;64.50;;;;;;5028669;28;20095;-76
2021/01/21 09:38:52;;;;;;;0.63;0.32;;;11.10;64.10;;;;;;5024929;28;20072;-76
2021/01/21 09:41:18;;;;;;;5.05;0.50;;;11.20;64.50;;;;;;5030066;28;20421;-75
2021/01/21 09:43:43;;;;;;;0.68;0.30;;;11.30;64.50;;;;;;5027758;28;20037;-75
2021/01/21 09:46:09;;;;;;;0.90;0.20;;;11.30;64.40;;;;;;5029907;28;20739;-75
2021/01/21 09:48:34;;;;;;;2.88;0.50;;;11.40;64.40;;;;;;5028579;28;20064;-75
2021/01/21 09:51:00;;;;;;;1.60;0.38;;;11.40;64.30;;;;;;5031464;28;20040;-75
2021/01/21 09:53:26;;;;;;;1.65;0.35;;;11.50;64.20;;;;;;5024890;28;20037;-74
2021/01/21 09:55:55;;;;;;;0.30;0.20;;;11.60;64.30;;;;;;5027319;28;20037;-75
2021/01/21 09:58:24;;;;;;;0.80;0.30;;;11.60;64.20;;;;;;5025152;28;20567;-76
2021/01/21 10:00:51;;;;;;;0.82;0.20;;;11.70;64.10;;;;;;5029107;28;20542;-75
2021/01/21 10:03:17;;;;;;;0.45;0.20;;;11.80;64.00;;;;;;5021190;28;20518;-76
2021/01/21 10:05:43;;;;;;;1.48;0.30;;;11.80;64.00;;;;;;5031371;28;20565;-74
2021/01/21 10:08:08;;;;;;;1.15;0.20;;;11.80;64.10;;;;;;5023761;28;20061;-75
2021/01/21 10:10:34;;;;;;;0.77;0.22;;;11.90;64.10;;;;;;5029627;28;20513;-75
2021/01/21 10:12:59;;;;;;;0.60;0.30;;;12.00;64.10;;;;;;5026779;28;20030;-75
2021/01/21 10:15:25;;;;;;;1.15;0.55;;;12.10;64.10;;;;;;5027281;28;20033;-75
2021/01/21 10:17:51;;;;;;;1.45;0.73;;;12.10;63.70;;;;;;5027182;28;20037;-75
2021/01/21 10:20:16;;;;;;;0.55;0.30;;;12.10;63.80;;;;;;5026046;28;20053;-75
2021/01/21 10:22:42;;;;;;;2.00;0.50;;;12.10;63.60;;;;;;5023942;28;20144;-76
2021/01/21 10:25:08;;;;;;;0.77;0.40;;;12.30;63.60;;;;;;5028084;28;20116;-76
2021/01/21 10:27:33;;;;;;;1.23;0.45;;;12.30;63.40;;;;;;5025696;28;20049;-76
2021/01/21 10:29:59;;;;;;;0.43;0.40;;;12.30;63.40;;;;;;5028257;28;20148;-76
2021/01/21 10:32:25;;;;;;;0.40;0.20;;;12.30;63.20;;;;;;5021380;28;20034;-76
2021/01/21 10:34:50;;;;;;;1.35;0.55;;;12.40;63.00;;;;;;5026727;28;20464;-75
2021/01/21 10:37:16;;;;;;;0.45;0.30;;;12.40;62.90;;;;;;5022793;28;20059;-76
2021/01/21 10:39:41;;;;;;;1.70;0.47;;;12.40;62.80;;;;;;5026816;28;20038;-75
2021/01/21 10:42:07;;;;;;;0.55;0.30;;;12.40;62.60;;;;;;5023182;28;20059;-74
2021/01/21 10:44:32;;;;;;;0.85;0.43;;;12.50;62.50;;;;;;5025838;28;20044;-76
2021/01/21 10:46:58;;;;;;;1.00;0.43;;;12.50;62.40;;;;;;5026354;28;20030;-76
2021/01/21 10:49:23;;;;;;;0.95;0.40;;;12.50;62.10;;;;;;5046714;22;20704;-77
2021/01/21 10:51:49;;;;;;;2.38;0.43;;;12.40;62.00;;;;;;5025983;28;20026;-78
2021/01/21 10:54:14;;;;;;;1.23;0.70;;;12.50;61.90;;;;;;5009823;28;20029;-78
2021/01/21 10:56:40;;;;;;;3.22;0.82;;;12.50;61.90;;;;;;5028616;28;20048;-78
2021/01/21 10:59:06;;;;;;;0.45;0.20;;;12.50;61.60;;;;;;5026878;28;20036;-82
2021/01/21 11:01:32;;;;;;;0.75;0.28;;;12.50;61.70;;;;;;5013533;28;20101;-75
2021/01/21 11:03:58;;;;;;;0.17;0.15;;;12.50;61.80;;;;;;5011503;28;20515;-74
2021/01/21 11:06:24;;;;;;;0.22;0.22;;;12.40;61.90;;;;;;5010436;28;20129;-75
2021/01/21 11:08:50;;;;;;;1.27;0.40;;;12.50;62.10;;;;;;5012458;28;20137;-79
2021/01/21 11:11:16;;;;;;;3.53;0.73;;;12.50;62.20;;;;;;5013475;28;20508;-79
2021/01/21 11:13:41;;;;;;;3.10;0.60;;;12.50;62.00;;;;;;5022820;28;20036;-78
2021/01/21 11:16:08;;;;;;;2.38;0.93;;;12.60;62.00;;;;;;5015732;28;20038;-77
2021/01/21 11:18:34;;;;;;;1.40;0.45;;;12.60;62.00;;;;;;5020864;28;20047;-79
2021/01/21 11:20:59;;;;;;;1.00;0.35;;;12.60;61.90;;;;;;5018922;28;20117;-79
2021/01/21 11:23:25;;;;;;;1.15;0.40;;;12.60;61.90;;;;;;5020583;28;20513;-79
2021/01/21 11:25:50;;;;;;;0.55;0.50;;;12.60;61.70;;;;;;5018101;28;20037;-78
2021/01/21 11:28:20;;;;;;;1.45;0.47;;;12.70;61.80;;;;;;5016607;28;20033;-79
2021/01/21 11:30:49;;;;;;;1.95;0.55;;;12.80;61.80;;;;;;5017055;28;20045;-79
2021/01/21 11:33:15;;;;;;;4.90;0.73;;;12.70;61.40;;;;;;5017917;28;20125;-79
2021/01/21 11:35:41;;;;;;;1.95;0.60;;;12.70;61.50;;;;;;5017560;28;20030;-79
2021/01/21 11:38:07;;;;;;;2.72;0.52;;;12.80;61.40;;;;;;5019806;28;20067;-78
2021/01/21 11:40:32;;;;;;;1.13;0.32;;;12.80;61.50;;;;;;5018841;28;20026;-80
2021/01/21 11:42:58;;;;;;;1.38;0.38;;;12.90;61.70;;;;;;5023305;28;20030;-79
2021/01/21 11:45:24;;;;;;;2.72;0.50;;;12.90;61.60;;;;;;5016600;28;20665;-78
2021/01/21 11:47:49;;;;;;;1.25;0.40;;;12.90;61.40;;;;;;5009932;28;20085;-79
2021/01/21 11:50:17;;;;;;;0.85;0.40;;;13.00;61.20;;;;;;5017027;28;20045;-80
2021/01/21 11:52:44;;;;;;;0.68;0.22;;;13.00;61.00;;;;;;5006547;28;20037;-79
2021/01/21 11:55:12;;;;;;;1.23;0.28;;;13.00;60.90;;;;;;5015855;28;20046;-79
2021/01/21 11:57:38;;;;;;;1.55;0.50;;;13.00;60.70;;;;;;5018216;28;20034;-79
2021/01/21 12:00:12;;;;;;;1.63;0.52;;;13.00;60.70;;;;;;5013292;28;20690;-79
2021/01/21 12:02:39;;;;;;;2.50;0.38;;;13.00;60.70;;;;;;5007332;28;20128;-78
2021/01/21 12:05:06;;;;;;;1.17;0.50;;;13.00;60.50;;;;;;5014665;28;20723;-78
2021/01/21 12:07:32;;;;;;;0.77;0.32;;;13.00;60.70;;;;;;5016599;28;20041;-79
2021/01/21 12:09:57;;;;;;;3.40;0.70;;;13.00;60.60;;;;;;4994090;28;20017;-78
2021/01/21 12:12:23;;;;;;;2.85;0.80;;;13.00;60.70;;;;;;5024885;28;20032;-79
2021/01/21 12:14:49;;;;;;;0.82;0.30;;;13.00;60.60;;;;;;5014885;28;20038;-79
2021/01/21 12:17:15;;;;;;;1.65;0.40;;;13.00;60.30;;;;;;5009229;28;20041;-79
2021/01/21 12:19:41;;;;;;;0.65;0.40;;;13.00;60.40;;;;;;5008604;28;20042;-79
2021/01/21 12:22:06;;;;;;;0.35;0.28;;;13.10;60.40;;;;;;5014942;28;20120;-77
2021/01/21 12:24:32;;;;;;;0.57;0.50;;;13.00;60.20;;;;;;5011557;28;20057;-79
2021/01/21 12:26:57;;;;;;;0.95;0.60;;;13.00;60.00;;;;;;5014278;28;20037;-79
2021/01/21 12:29:23;;;;;;;0.90;0.30;;;12.90;60.00;;;;;;5015131;28;20419;-79
2021/01/21 12:31:48;;;;;;;2.75;0.50;;;12.90;59.90;;;;;;5013405;28;20399;-79
2021/01/21 12:34:14;;;;;;;1.17;0.50;;;12.90;59.90;;;;;;5014023;28;20026;-79
2021/01/21 12:36:40;;;;;;;1.45;0.50;;;12.80;59.80;;;;;;5014036;28;20037;-79
2021/01/21 12:39:05;;;;;;;1.08;0.38;;;12.80;59.80;;;;;;5014417;28;20107;-79
2021/01/21 12:41:31;;;;;;;1.73;0.40;;;12.70;59.90;;;;;;5018305;28;20079;-79
2021/01/21 12:43:56;;;;;;;2.83;1.02;;;12.80;59.90;;;;;;5013004;28;20553;-79
2021/01/21 12:46:23;;;;;;;0.73;0.47;;;12.70;60.00;;;;;;5019175;28;20030;-79
2021/01/21 12:48:49;;;;;;;0.63;0.25;;;12.70;59.80;;;;;;5009283;28;20077;-76
2021/01/21 12:51:14;;;;;;;1.25;0.40;;;12.70;59.90;;;;;;5015636;28;20498;-79
2021/01/21 12:53:40;;;;;;;1.25;0.50;;;12.70;60.10;;;;;;5008730;28;20026;-79